Open Full Screen Window  High Contrast Mode
Wind Gusting 00 knots
04
December 18, 2014 3:52 PM EST
Weather Information
Wind Direction
  340 °
Wind Speed
  04 kt (5 mph)
Wind Gust
  00 kt (0 mph)
Altimeter
30.17 in
Visibility
10 SM
Temperature
-01° C
30° F
Dewpoint
-05° C
23° F
Humidity
75%
1hr Rain Fall
00.00 in.
24hr Rain Fall
00.00 in.
Sky Condition
Overcast @ 1,500 ft
MVFR

METAR KIKW 182052Z AUTO 34004KT 10SM OVC015 M01/M05 A3017 RMK AO2 T10131047

*Background is not an actual portrayal of the airport.